Time;durP1;ratioP1;P1;durP2;ratioP2;P2;SDS_P1;SDS_P2;PMS_P1;PMS_P2;Temp;Humidity;BMP_temperature;BMP_pressure;BME280_temperature;BME280_humidity;BME280_pressure;Samples;Min_cycle;Max_cycle;Signal;HPM_P1;HPM_P2
2021/12/20 00:01:05;;;;;;;5.15;1.65;;;;;;;0.55;87.59;97884.02;1751707;80;21495;-61
2021/12/20 00:03:33;;;;;;;2.02;1.35;;;;;;;0.56;87.50;97887.82;1747066;80;21514;-60
2021/12/20 00:06:02;;;;;;;1.80;1.10;;;;;;;0.59;87.26;97890.78;1747610;80;21042;-59
2021/12/20 00:08:31;;;;;;;1.65;1.27;;;;;;;0.62;87.20;97884.20;1744557;80;21610;-59
2021/12/20 00:10:57;;;;;;;2.92;1.45;;;;;;;0.63;86.92;97891.08;1741182;80;21566;-60
2021/12/20 00:13:24;;;;;;;1.70;1.50;;;;;;;0.58;86.68;97889.94;1737310;80;21448;-59
2021/12/20 00:15:52;;;;;;;3.10;1.20;;;;;;;0.55;86.98;97898.23;1753475;80;21557;-58
2021/12/20 00:18:21;;;;;;;2.30;1.40;;;;;;;0.54;86.94;97899.11;1689697;83;21601;-59
2021/12/20 00:20:48;;;;;;;2.45;1.50;;;;;;;0.56;87.08;97898.63;1747953;80;27050;-59
2021/12/20 00:23:15;;;;;;;1.62;1.50;;;;;;;0.58;86.80;97903.30;1746054;80;25677;-59
2021/12/20 00:25:48;;;;;;;3.00;2.10;;;;;;;0.58;86.41;97908.47;1747740;80;21155;-59
2021/12/20 00:28:11;;;;;;;2.47;2.20;;;;;;;0.55;86.55;97905.54;1759742;80;21412;-59
2021/12/20 00:30:39;;;;;;;2.20;2.00;;;;;;;0.54;86.66;97912.88;1751510;80;21480;-60
2021/12/20 00:33:06;;;;;;;3.35;1.90;;;;;;;0.52;86.64;97912.54;1744991;80;21566;-59
2021/12/20 00:35:33;;;;;;;4.17;2.20;;;;;;;0.60;86.75;97914.89;1752221;80;21853;-59
2021/12/20 00:40:48;;;;;;;3.17;1.95;;;;;;;0.66;86.53;97922.03;1736821;80;21657;-59
2021/12/20 00:43:15;;;;;;;2.37;1.55;;;;;;;0.58;86.14;97914.52;1753460;80;21472;-60
2021/12/20 00:45:42;;;;;;;1.30;1.20;;;;;;;0.55;86.46;97921.06;1751187;80;21431;-59
2021/12/20 00:48:10;;;;;;;1.92;1.42;;;;;;;0.54;86.14;97922.39;1752515;80;21688;-60
2021/12/20 00:50:38;;;;;;;1.57;1.43;;;;;;;0.51;86.35;97914.71;1742955;80;21529;-60
2021/12/20 00:53:05;;;;;;;1.40;1.30;;;;;;;0.50;86.12;97925.97;1734988;80;21561;-59
2021/12/20 00:55:32;;;;;;;1.32;1.10;;;;;;;0.48;85.89;97926.01;1743567;80;21507;-59
2021/12/20 00:58:00;;;;;;;1.02;0.93;;;;;;;0.46;85.90;97921.78;1751225;80;21529;-59
2021/12/20 01:00:37;;;;;;;1.75;1.20;;;;;;;0.44;85.88;97930.88;1752854;80;22002;-60
2021/12/20 01:03:04;;;;;;;0.90;0.90;;;;;;;0.42;85.92;97933.11;1746568;80;21518;-60
2021/12/20 01:05:31;;;;;;;1.05;0.85;;;;;;;0.37;86.08;97928.90;1749214;80;21514;-59
2021/12/20 01:08:01;;;;;;;2.08;1.07;;;;;;;0.39;85.97;97934.03;1745427;80;21511;-59
2021/12/20 01:10:29;;;;;;;1.25;1.07;;;;;;;0.44;85.96;97931.33;1749333;80;21499;-60
2021/12/20 01:12:59;;;;;;;0.85;0.85;;;;;;;0.42;86.08;97932.66;1741045;80;21787;-59
2021/12/20 01:15:35;;;;;;;1.27;1.10;;;;;;;0.41;86.13;97928.82;1742237;80;21634;-59
2021/12/20 01:18:04;;;;;;;3.22;1.15;;;;;;;0.39;85.83;97936.16;1744158;80;22037;-59
2021/12/20 01:20:32;;;;;;;1.77;1.25;;;;;;;0.34;85.68;97935.89;1744423;80;21467;-59
2021/12/20 01:22:59;;;;;;;1.32;1.00;;;;;;;0.43;85.85;97936.92;1736013;82;21498;-59
2021/12/20 01:25:26;;;;;;;2.37;0.88;;;;;;;0.45;85.62;97939.02;1745181;80;21770;-60
2021/12/20 01:27:53;;;;;;;2.02;1.50;;;;;;;0.44;85.57;97939.92;1746001;80;21549;-60
2021/12/20 01:30:23;;;;;;;1.03;0.93;;;;;;;0.39;85.37;97939.20;1738661;80;21550;-60
2021/12/20 01:32:50;;;;;;;1.02;0.75;;;;;;;0.41;85.66;97946.92;1740221;80;21490;-59
2021/12/20 01:35:18;;;;;;;0.93;0.90;;;;;;;0.50;85.72;97945.36;1691882;83;20943;-59
2021/12/20 01:37:45;;;;;;;;;;;;;;;0.55;85.40;97944.79;1756241;80;21788;-59
2021/12/20 01:40:13;;;;;;;1.53;1.20;;;;;;;0.45;85.35;97948.06;1749051;80;20448;-59
2021/12/20 01:42:40;;;;;;;1.25;1.15;;;;;;;0.35;85.61;97945.36;1751825;80;21593;-59
2021/12/20 01:45:16;;;;;;;1.72;0.78;;;;;;;0.30;85.67;97943.34;1750891;80;21459;-60
2021/12/20 01:47:47;;;;;;;1.65;1.17;;;;;;;0.28;86.15;97943.37;1684566;83;21559;-61
2021/12/20 01:50:21;;;;;;;1.80;0.95;;;;;;;0.36;85.88;97948.36;1755344;80;22128;-59
2021/12/20 01:52:44;;;;;;;5.33;1.52;;;;;;;0.44;85.67;97946.84;1739961;80;21546;-61
2021/12/20 01:55:17;;;;;;;2.47;1.10;;;;;;;0.43;85.39;97933.50;1751499;80;21128;-60
2021/12/20 01:57:45;;;;;;;1.47;1.30;;;;;;;0.31;84.81;97929.08;1742211;80;21503;-60
2021/12/20 02:00:17;;;;;;;0.80;0.80;;;;;;;0.22;85.02;97934.97;1744246;80;21551;-60
2021/12/20 02:02:54;;;;;;;1.20;0.95;;;;;;;0.22;85.42;97933.67;1738775;80;21782;-60
2021/12/20 02:05:24;;;;;;;1.40;1.02;;;;;;;0.30;85.55;97936.45;1757431;80;21542;-60
2021/12/20 02:07:58;;;;;;;2.22;1.17;;;;;;;0.31;85.33;97930.38;1702671;80;21463;-60
2021/12/20 02:10:18;;;;;;;1.12;0.80;;;;;;;0.28;85.32;97930.45;1743172;80;21475;-59
2021/12/20 02:12:46;;;;;;;2.15;0.90;;;;;;;0.27;85.37;97929.23;1754293;80;21396;-59
2021/12/20 02:15:13;;;;;;;1.15;0.70;;;;;;;0.24;85.38;97928.85;1747381;80;21605;-60
2021/12/20 02:17:40;;;;;;;1.17;0.97;;;;;;;0.27;85.28;97937.83;1754996;80;21050;-60
2021/12/20 02:20:09;;;;;;;1.30;0.93;;;;;;;0.32;85.29;97933.80;1741546;80;22131;-59
2021/12/20 02:22:38;;;;;;;2.83;1.07;;;;;;;0.37;85.01;97934.06;1744063;80;21380;-60
2021/12/20 02:25:07;;;;;;;1.60;0.90;;;;;;;0.37;84.92;97933.23;1747976;80;21482;-60
2021/12/20 02:27:34;;;;;;;1.27;0.70;;;;;;;0.37;85.06;97940.53;1746953;80;21495;-59
2021/12/20 02:30:09;;;;;;;1.20;0.78;;;;;;;0.33;84.87;97936.34;1749668;80;21535;-60
2021/12/20 02:38:23;;;;;;;1.30;0.88;;;;;;;0.28;84.49;97940.80;1752780;80;21570;-60
2021/12/20 02:40:57;;;;;;;4.20;1.00;;;;;;;0.24;84.49;97953.86;1738143;80;22012;-60
2021/12/20 02:43:27;;;;;;;1.72;1.00;;;;;;;0.16;84.52;97949.75;1735361;82;21416;-59
2021/12/20 02:45:57;;;;;;;3.33;1.10;;;;;;;0.11;84.84;97954.64;1739595;80;21554;-60
2021/12/20 02:48:22;;;;;;;1.37;0.80;;;;;;;0.09;85.00;97951.26;1746595;80;21483;-60
2021/12/20 02:50:55;;;;;;;2.20;1.12;;;;;;;0.11;84.91;97958.52;1748312;80;21597;-59
2021/12/20 02:53:23;;;;;;;1.17;0.93;;;;;;;0.12;84.92;97957.64;1747097;80;21915;-60
2021/12/20 02:55:50;;;;;;;1.60;0.90;;;;;;;0.09;84.93;97954.68;1745787;80;21136;-60
2021/12/20 02:58:18;;;;;;;1.50;0.98;;;;;;;0.09;84.87;97954.68;1741911;80;21577;-60
2021/12/20 03:00:46;;;;;;;2.35;0.90;;;;;;;0.05;84.47;97959.98;1752482;80;21668;-60
2021/12/20 03:03:13;;;;;;;2.02;1.00;;;;;;;0.01;84.55;97957.09;1738278;80;21541;-60
2021/12/20 03:05:40;;;;;;;0.68;0.68;;;;;;;-0.08;84.73;97956.88;1760263;80;21765;-62
2021/12/20 03:08:07;;;;;;;3.25;0.90;;;;;;;-0.06;84.81;97952.09;1747503;80;21541;-64
2021/12/20 03:10:39;;;;;;;4.65;1.50;;;;;;;-0.05;84.66;97956.36;1751197;80;21563;-60
2021/12/20 03:13:03;;;;;;;1.42;0.72;;;;;;;0.01;84.78;97957.09;1748510;80;21567;-60
2021/12/20 03:15:30;;;;;;;1.82;1.02;;;;;;;0.03;84.90;97954.86;1748086;80;21617;-60
2021/12/20 03:17:58;;;;;;;1.12;0.80;;;;;;;0.05;85.11;97959.98;1743530;80;21776;-60
2021/12/20 03:20:25;;;;;;;0.80;0.70;;;;;;;0.04;85.07;97960.44;1753909;80;21420;-60
2021/12/20 03:22:52;;;;;;;1.67;1.07;;;;;;;0.06;85.02;97954.78;1747579;80;21134;-60
2021/12/20 03:25:21;;;;;;;1.47;0.60;;;;;;;0.15;84.82;97966.16;1744249;80;21568;-60
2021/12/20 03:27:48;;;;;;;1.00;0.90;;;;;;;0.25;84.65;97957.70;1743082;80;21459;-60
2021/12/20 03:30:15;;;;;;;1.17;0.80;;;;;;;0.19;84.78;97965.64;1740988;80;21802;-60
2021/12/20 03:32:43;;;;;;;2.50;1.02;;;;;;;0.14;84.78;97962.33;1743936;80;21511;-63
2021/12/20 03:35:11;;;;;;;1.47;0.70;;;;;;;0.10;84.71;97946.50;1752196;80;21594;-60
2021/12/20 03:37:39;;;;;;;1.00;0.90;;;;;;;0.10;84.50;97947.80;1749857;80;21415;-61
2021/12/20 03:40:08;;;;;;;2.67;0.98;;;;;;;0.17;83.97;97959.63;1742407;80;21558;-60
2021/12/20 03:42:39;;;;;;;1.30;0.88;;;;;;;0.18;83.97;97953.14;1740234;80;21840;-61
2021/12/20 03:45:05;;;;;;;1.80;0.85;;;;;;;0.16;84.16;97958.80;1708631;82;21609;-59
2021/12/20 03:47:53;;;;;;;2.22;0.80;;;;;;;0.12;84.05;97965.40;1757177;80;21434;-60
2021/12/20 03:50:21;;;;;;;1.20;0.75;;;;;;;0.07;84.12;97961.62;1721775;82;22012;-60
2021/12/20 03:52:49;;;;;;;1.10;0.72;;;;;;;0.08;84.03;97962.50;1706063;82;21532;-60
2021/12/20 03:55:16;;;;;;;0.65;0.50;;;;;;;0.10;83.99;97965.44;1714336;82;22182;-62
2021/12/20 03:57:43;;;;;;;0.83;0.43;;;;;;;0.07;84.06;97973.27;1714662;82;21443;-60
2021/12/20 04:00:12;;;;;;;0.80;0.72;;;;;;;0.02;84.39;97971.27;1720842;82;21815;-60
2021/12/20 04:02:43;;;;;;;0.90;0.78;;;;;;;-0.03;84.78;97971.83;1719063;82;21559;-60
2021/12/20 04:05:10;;;;;;;1.98;0.62;;;;;;;0.01;84.51;97976.47;1716205;82;21546;-60
2021/12/20 04:07:38;;;;;;;0.88;0.62;;;;;;;-0.02;84.33;97977.38;1721480;82;22163;-61
2021/12/20 04:10:06;;;;;;;1.90;1.07;;;;;;;0.02;84.06;97978.15;1711433;82;21485;-60
2021/12/20 04:12:33;;;;;;;0.70;0.65;;;;;;;-0.07;84.17;97977.52;1709294;82;21510;-61
2021/12/20 04:15:00;;;;;;;0.98;0.80;;;;;;;-0.08;84.67;97989.17;1718923;82;21477;-61
2021/12/20 04:17:27;;;;;;;0.90;0.65;;;;;;;-0.12;85.61;97988.86;1714219;82;21052;-60
2021/12/20 04:19:55;;;;;;;0.65;0.55;;;;;;;-0.07;85.67;97990.89;1708282;82;22020;-61
2021/12/20 04:22:22;;;;;;;1.67;0.78;;;;;;;-0.06;86.01;97986.98;1719300;82;21419;-61
2021/12/20 04:24:49;;;;;;;1.20;0.80;;;;;;;-0.06;86.21;97997.31;1707886;82;21488;-61
2021/12/20 04:27:16;;;;;;;1.57;0.97;;;;;;;-0.07;85.59;97995.61;1703979;82;21636;-61
2021/12/20 04:29:43;;;;;;;1.27;0.90;;;;;;;-0.13;85.57;98002.66;1712853;82;21512;-61
2021/12/20 04:32:10;;;;;;;1.37;0.88;;;;;;;-0.15;85.84;98003.14;1712788;82;21449;-60
2021/12/20 04:34:37;;;;;;;1.40;0.90;;;;;;;-0.15;87.22;97997.55;1716904;82;21499;-60
2021/12/20 04:37:07;;;;;;;1.95;1.00;;;;;;;-0.14;86.59;98001.81;1713873;82;21509;-60
2021/12/20 04:39:34;;;;;;;1.30;1.00;;;;;;;-0.20;86.42;98005.85;1705052;82;21504;-60
2021/12/20 04:42:01;;;;;;;1.70;0.77;;;;;;;-0.22;86.17;98008.47;1720100;81;21487;-60
2021/12/20 04:44:28;;;;;;;1.15;0.90;;;;;;;-0.32;87.16;98012.19;1721779;82;21773;-61
2021/12/20 04:46:55;;;;;;;0.90;0.90;;;;;;;-0.29;88.49;98013.38;1697876;82;21134;-60
2021/12/20 04:49:24;;;;;;;2.90;1.00;;;;;;;-0.23;87.78;98014.54;1716996;82;21538;-61
2021/12/20 04:51:53;;;;;;;1.27;0.82;;;;;;;-0.18;87.39;98014.86;1718785;82;21654;-60
2021/12/20 04:54:33;;;;;;;2.80;1.40;;;;;;;-0.22;86.65;98012.80;1747019;80;21378;-60
2021/12/20 04:57:00;;;;;;;1.23;0.97;;;;;;;-0.24;86.88;98008.12;1748341;80;21770;-60
2021/12/20 04:59:27;;;;;;;0.90;0.90;;;;;;;-0.22;86.40;98010.22;1749911;80;21821;-60
2021/12/20 05:01:54;;;;;;;1.22;0.75;;;;;;;-0.20;86.86;98013.15;1752513;80;21419;-60
2021/12/20 05:04:21;;;;;;;3.00;1.00;;;;;;;-0.18;85.92;98009.24;1749253;80;21471;-61
2021/12/20 05:06:49;;;;;;;1.52;0.90;;;;;;;-0.25;86.71;98021.91;1746327;80;21002;-61
2021/12/20 05:09:19;;;;;;;1.47;0.98;;;;;;;-0.30;86.85;98019.87;1736891;81;21813;-60
2021/12/20 05:11:51;;;;;;;0.78;0.70;;;;;;;-0.29;86.81;98017.25;1753454;80;21002;-60
2021/12/20 05:14:17;;;;;;;1.47;0.95;;;;;;;-0.20;87.17;98022.64;1743288;79;21550;-62
2021/12/20 05:19:47;;;;;;;0.72;0.72;;;;;;;-0.22;86.60;98030.88;1778573;78;23155;-61
2021/12/20 05:22:14;;;;;;;2.03;0.70;;;;;;;-0.30;86.98;98034.08;1740952;80;21441;-61
2021/12/20 05:24:41;;;;;;;2.00;0.90;;;;;;;-0.28;86.73;98028.01;1734290;81;22116;-60
2021/12/20 05:27:08;;;;;;;1.02;0.70;;;;;;;-0.22;86.16;98031.72;1737511;80;21461;-61
2021/12/20 05:29:35;;;;;;;2.30;0.75;;;;;;;-0.15;86.03;98031.55;1745255;80;21558;-61
2021/12/20 05:32:06;;;;;;;0.68;0.65;;;;;;;-0.09;85.92;98028.84;1735148;80;21628;-60
2021/12/20 05:34:34;;;;;;;1.50;1.10;;;;;;;-0.09;85.65;98041.30;1709956;82;21535;-60
2021/12/20 05:37:02;;;;;;;1.90;1.20;;;;;;;-0.10;85.54;98038.30;1716650;82;21826;-61
2021/12/20 05:39:29;;;;;;;2.17;1.40;;;;;;;-0.12;84.95;98041.38;1716456;81;24290;-61
2021/12/20 05:41:56;;;;;;;1.40;1.30;;;;;;;-0.03;85.05;98046.31;1694673;82;21629;-61
2021/12/20 05:44:23;;;;;;;1.32;1.15;;;;;;;0.03;85.10;98045.30;1703116;83;21512;-60
2021/12/20 05:46:52;;;;;;;1.15;1.05;;;;;;;0.05;84.95;98047.41;1706985;82;21509;-61
2021/12/20 05:49:19;;;;;;;2.12;1.50;;;;;;;0.02;85.14;98051.38;1704417;82;21838;-61
2021/12/20 05:51:46;;;;;;;1.42;1.00;;;;;;;-0.01;84.89;98057.45;1700275;82;21436;-61
2021/12/20 05:54:14;;;;;;;1.02;0.80;;;;;;;0.08;84.59;98069.75;1696614;82;21465;-60
2021/12/20 05:56:40;;;;;;;1.37;1.02;;;;;;;0.15;84.47;98070.84;1703516;82;21571;-61
2021/12/20 05:59:07;;;;;;;1.20;0.80;;;;;;;0.20;84.39;98070.71;1709473;83;21544;-58
2021/12/20 06:01:34;;;;;;;2.02;1.30;;;;;;;0.14;84.27;98074.30;1703892;82;21824;-59
2021/12/20 06:04:01;;;;;;;1.20;1.10;;;;;;;0.12;84.08;98067.48;1699735;82;21542;-59
2021/12/20 06:06:31;;;;;;;1.85;0.90;;;;;;;0.09;84.20;98074.86;1707448;83;21552;-59
2021/12/20 06:08:57;;;;;;;1.10;1.00;;;;;;;0.15;84.07;98077.73;1699982;82;21549;-60
2021/12/20 06:11:24;;;;;;;0.90;0.80;;;;;;;0.15;83.31;98076.44;1682356;83;21598;-60
2021/12/20 06:13:52;;;;;;;1.20;1.07;;;;;;;0.21;83.56;98077.59;1687220;83;22034;-59
2021/12/20 06:16:21;;;;;;;1.77;1.05;;;;;;;0.23;83.80;98078.82;1702442;82;21534;-59
2021/12/20 06:18:51;;;;;;;1.10;1.00;;;;;;;0.24;83.63;98082.66;1698026;82;21547;-59
2021/12/20 06:21:18;;;;;;;1.05;0.93;;;;;;;0.22;83.25;98083.60;1689358;82;21489;-59
2021/12/20 06:23:45;;;;;;;1.20;1.10;;;;;;;0.18;83.57;98088.00;1686102;82;21555;-58
2021/12/20 06:26:13;;;;;;;1.05;0.90;;;;;;;0.22;83.51;98079.27;1726975;80;22076;-59
2021/12/20 06:28:40;;;;;;;2.10;1.07;;;;;;;0.23;83.26;98089.16;1726847;80;21080;-61
2021/12/20 06:31:07;;;;;;;1.35;1.12;;;;;;;0.24;83.59;98087.83;1724453;80;21594;-59
2021/12/20 06:33:34;;;;;;;1.17;0.98;;;;;;;0.24;83.72;98088.28;1728996;80;21609;-58
2021/12/20 06:36:01;;;;;;;1.40;1.07;;;;;;;0.25;83.78;98088.25;1725345;80;21570;-59
2021/12/20 06:38:28;;;;;;;1.65;1.32;;;;;;;0.23;83.34;98090.03;1725219;80;21749;-59
2021/12/20 06:40:55;;;;;;;1.67;1.17;;;;;;;0.28;83.08;98088.61;1727165;80;21418;-59
2021/12/20 06:43:22;;;;;;;1.67;1.27;;;;;;;0.28;83.25;98095.06;1722161;82;21703;-58
2021/12/20 06:45:49;;;;;;;2.15;1.02;;;;;;;0.25;83.66;98099.89;1695225;82;21570;-63
2021/12/20 06:48:16;;;;;;;1.47;1.30;;;;;;;0.25;83.85;98090.84;1672360;83;21552;-63
2021/12/20 06:50:43;;;;;;;1.47;1.10;;;;;;;0.26;84.04;98104.60;1701641;82;22300;-59
2021/12/20 06:53:12;;;;;;;1.77;0.93;;;;;;;0.25;84.26;98098.59;1727516;80;21628;-58
2021/12/20 06:55:39;;;;;;;1.05;0.93;;;;;;;0.33;83.90;98105.70;1722824;80;22586;-63
2021/12/20 06:58:06;;;;;;;2.47;1.37;;;;;;;0.39;83.73;98101.65;1700183;82;21501;-60
2021/12/20 07:00:33;;;;;;;1.80;1.27;;;;;;;0.38;83.59;98101.27;1698633;82;21643;-59
2021/12/20 07:03:01;;;;;;;1.67;1.00;;;;;;;0.38;83.21;98108.18;1695205;83;24362;-59
2021/12/20 07:05:28;;;;;;;1.70;1.12;;;;;;;0.31;83.74;98104.89;1734873;80;20992;-61
2021/12/20 07:07:55;;;;;;;1.40;1.05;;;;;;;0.33;83.60;98116.03;1693715;84;21439;-60
2021/12/20 07:10:22;;;;;;;2.47;1.30;;;;;;;0.40;83.50;98107.69;1728991;81;21421;-59
2021/12/20 07:12:51;;;;;;;1.50;1.40;;;;;;;0.49;83.30;98107.45;1738304;80;21431;-59
2021/12/20 07:15:18;;;;;;;1.65;1.30;;;;;;;0.51;82.62;98106.09;1740703;79;21793;-60
2021/12/20 07:17:45;;;;;;;;;;;;;;;0.39;82.57;98109.41;1731813;81;21544;-61
2021/12/20 07:20:12;;;;;;;1.35;1.10;;;;;;;0.34;83.39;98112.58;1740760;80;20530;-60
2021/12/20 07:22:40;;;;;;;1.80;1.30;;;;;;;0.24;83.77;98112.39;1754120;80;21490;-60
2021/12/20 07:25:07;;;;;;;2.23;1.53;;;;;;;0.25;83.65;98128.32;1746139;80;21539;-60
2021/12/20 07:27:35;;;;;;;8.95;2.17;;;;;;;0.26;83.79;98123.99;1741197;80;21460;-59
2021/12/20 07:30:03;;;;;;;1.50;1.17;;;;;;;0.32;83.58;98122.11;1742373;80;21018;-61
2021/12/20 07:32:32;;;;;;;1.52;1.30;;;;;;;0.30;83.42;98121.73;1744104;80;21574;-59
2021/12/20 07:34:59;;;;;;;1.57;1.40;;;;;;;0.28;83.41;98135.98;1740259;80;21537;-60
2021/12/20 07:37:27;;;;;;;1.53;1.33;;;;;;;0.31;83.47;98129.45;1746060;80;21433;-60
2021/12/20 07:39:55;;;;;;;1.92;1.37;;;;;;;0.38;83.29;98134.88;1743979;80;21837;-59
2021/12/20 07:42:22;;;;;;;2.52;1.40;;;;;;;0.45;82.54;98142.47;1747387;80;20931;-61
2021/12/20 07:44:49;;;;;;;1.73;1.47;;;;;;;0.48;82.39;98139.36;1747240;80;21441;-59
2021/12/20 07:47:16;;;;;;;2.20;2.00;;;;;;;0.43;81.98;98145.53;1738408;80;21522;-59
2021/12/20 07:49:43;;;;;;;2.60;1.98;;;;;;;0.44;82.31;98148.55;1733076;80;21478;-62
2021/12/20 07:52:10;;;;;;;2.47;1.80;;;;;;;0.44;81.93;98156.30;1736944;80;22061;-61
2021/12/20 07:54:37;;;;;;;3.40;1.93;;;;;;;0.45;82.21;98160.11;1745490;80;21683;-60
2021/12/20 07:57:06;;;;;;;3.22;1.75;;;;;;;0.58;82.45;98161.95;1746597;80;21637;-60
2021/12/20 07:59:33;;;;;;;2.72;2.12;;;;;;;0.65;81.99;98154.44;1749894;80;26986;-62
2021/12/20 08:02:00;;;;;;;1.65;1.55;;;;;;;0.59;81.78;98140.38;1746249;79;21596;-61
2021/12/20 08:04:27;;;;;;;2.20;1.95;;;;;;;0.67;81.86;98158.28;1742657;80;22056;-61
2021/12/20 08:06:54;;;;;;;3.17;2.58;;;;;;;0.65;81.66;98163.48;1741257;80;21459;-61
2021/12/20 08:09:21;;;;;;;2.60;2.00;;;;;;;0.68;81.57;98169.89;1747138;80;21456;-60
2021/12/20 08:11:48;;;;;;;4.17;2.50;;;;;;;0.73;81.10;98160.70;1742247;80;21515;-61
2021/12/20 08:14:15;;;;;;;3.25;2.30;;;;;;;0.74;80.80;98163.25;1744256;80;21424;-60
2021/12/20 08:16:42;;;;;;;4.30;2.43;;;;;;;0.78;80.98;98170.48;1744968;80;21818;-60
2021/12/20 08:19:10;;;;;;;3.33;2.70;;;;;;;0.83;81.14;98163.45;1706084;83;21471;-60
2021/12/20 08:21:37;;;;;;;3.57;2.37;;;;;;;0.89;81.38;98165.87;1730797;82;21472;-61
2021/12/20 08:24:05;;;;;;;4.33;2.50;;;;;;;0.85;80.65;98164.26;1730977;81;21556;-59
2021/12/20 08:26:34;;;;;;;3.35;2.50;;;;;;;0.86;80.92;98167.69;1735085;81;20934;-60
2021/12/20 08:29:01;;;;;;;2.77;2.10;;;;;;;0.96;79.85;98167.41;1733645;80;22041;-60
2021/12/20 08:31:28;;;;;;;4.12;2.42;;;;;;;0.96;79.85;98167.41;1734835;80;21464;-60
2021/12/20 08:33:54;;;;;;;2.93;2.17;;;;;;;1.00;80.12;98173.34;1733089;80;21452;-61
2021/12/20 08:36:21;;;;;;;4.17;2.60;;;;;;;1.09;80.47;98176.98;1699156;82;21580;-60
2021/12/20 08:38:49;;;;;;;3.67;2.42;;;;;;;1.10;80.19;98171.34;1686187;84;27042;-61
2021/12/20 08:41:17;;;;;;;4.03;2.07;;;;;;;1.07;80.02;98167.08;1731806;80;21803;-60
2021/12/20 08:43:44;;;;;;;5.65;1.77;;;;;;;1.06;80.42;98176.21;1727158;80;21689;-61
2021/12/20 08:46:13;;;;;;;4.10;1.60;;;;;;;1.12;80.46;98162.63;1721138;80;21647;-59
2021/12/20 08:48:40;;;;;;;2.58;2.08;;;;;;;1.05;79.29;98175.34;1746983;80;21475;-59
2021/12/20 08:51:07;;;;;;;3.03;2.00;;;;;;;1.08;79.36;98177.02;1731530;82;21511;-60
2021/12/20 08:53:34;;;;;;;3.80;2.50;;;;;;;1.10;80.09;98183.84;1726576;81;21870;-59
2021/12/20 08:56:20;;;;;;;3.55;2.10;;;;;;;1.02;79.05;98174.57;1720245;80;21010;-59
2021/12/20 08:58:47;;;;;;;2.75;2.08;;;;;;;0.98;79.41;98177.72;1732250;80;21502;-60
2021/12/20 09:01:14;;;;;;;2.65;2.00;;;;;;;1.00;79.89;98177.66;1727661;80;21467;-59
2021/12/20 09:03:41;;;;;;;3.77;2.07;;;;;;;1.01;80.02;98184.09;1729214;81;21515;-59
2021/12/20 09:06:08;;;;;;;4.73;2.30;;;;;;;1.05;79.95;98182.27;1719494;82;21898;-58
2021/12/20 09:08:35;;;;;;;2.52;2.00;;;;;;;1.00;79.24;98190.59;1722162;80;21875;-59
2021/12/20 09:11:03;;;;;;;3.55;2.65;;;;;;;0.89;79.27;98184.44;1726717;80;21570;-60
2021/12/20 09:13:30;;;;;;;4.58;2.08;;;;;;;0.87;79.80;98183.63;1738310;80;21727;-58
2021/12/20 09:15:59;;;;;;;4.43;2.67;;;;;;;0.93;80.09;98191.22;1728716;80;21546;-59
2021/12/20 09:18:28;;;;;;;3.17;2.40;;;;;;;1.00;80.05;98194.48;1715707;80;21774;-59
2021/12/20 09:20:57;;;;;;;;;;;;;;;1.09;79.87;98188.63;1727064;80;21624;-59
2021/12/20 09:23:28;;;;;;;3.22;2.30;;;;;;;1.18;80.02;98187.50;1726063;80;20729;-58
2021/12/20 09:25:53;;;;;;;4.17;3.12;;;;;;;1.16;79.02;98190.58;1696567;82;21057;-59
2021/12/20 09:28:19;;;;;;;5.55;3.27;;;;;;;1.18;79.10;98184.08;1685333;84;21608;-59
2021/12/20 09:30:46;;;;;;;5.87;3.30;;;;;;;1.20;78.91;98179.24;1731004;80;21539;-57
2021/12/20 09:33:14;;;;;;;4.03;2.75;;;;;;;1.23;79.45;98180.92;1727131;80;21492;-60
2021/12/20 09:35:41;;;;;;;3.00;2.40;;;;;;;1.23;78.59;98174.44;1724246;80;21503;-58
2021/12/20 09:38:11;;;;;;;3.20;2.70;;;;;;;1.31;78.42;98172.47;1726259;80;21523;-60
2021/12/20 09:40:40;;;;;;;3.27;2.45;;;;;;;1.42;78.60;98176.05;1698664;82;21116;-60
2021/12/20 09:43:12;;;;;;;2.10;1.90;;;;;;;1.54;78.26;98175.25;1702419;82;21811;-60
2021/12/20 09:45:43;;;;;;;3.02;2.72;;;;;;;1.59;77.07;98171.67;1723012;80;21586;-60
2021/12/20 09:48:10;;;;;;;3.55;2.67;;;;;;;1.59;76.62;98169.92;1725339;80;21034;-59
2021/12/20 09:50:38;;;;;;;3.17;2.58;;;;;;;1.60;76.16;98178.53;1728206;80;21549;-60
2021/12/20 09:53:07;;;;;;;2.95;2.42;;;;;;;1.64;75.07;98182.30;1731529;80;20991;-60
2021/12/20 09:55:34;;;;;;;2.87;2.35;;;;;;;1.66;75.31;98188.28;1690655;82;21415;-60
2021/12/20 09:58:02;;;;;;;8.47;4.80;;;;;;;1.91;74.88;98184.48;1695104;82;21541;-60
2021/12/20 10:00:30;;;;;;;3.50;2.87;;;;;;;2.45;74.80;98178.87;1735815;80;21581;-61
2021/12/20 10:02:57;;;;;;;2.92;2.62;;;;;;;2.78;72.19;98173.88;1732195;80;21555;-61
2021/12/20 10:05:24;;;;;;;2.47;2.07;;;;;;;3.17;71.37;98169.48;1731322;80;21439;-61
2021/12/20 10:07:51;;;;;;;2.10;1.75;;;;;;;3.54;70.16;98169.41;1737306;80;21468;-60
2021/12/20 10:10:41;;;;;;;3.12;2.25;;;;;;;3.73;70.15;98160.45;1733990;80;20943;-60
2021/12/20 10:13:22;;;;;;;1.90;1.70;;;;;;;3.67;68.56;98165.43;1719334;81;21535;-59
2021/12/20 10:15:49;;;;;;;1.60;1.50;;;;;;;3.60;67.21;98171.33;1725378;79;21419;-61
2021/12/20 10:18:17;;;;;;;;;;;;;;;3.79;67.01;98172.77;1740830;80;21451;-61
2021/12/20 10:20:50;;;;;;;1.80;1.60;;;;;;;4.01;66.00;98173.22;1734904;80;20810;-59
2021/12/20 10:23:27;;;;;;;1.57;1.37;;;;;;;4.55;65.23;98169.75;1743976;80;21420;-61
2021/12/20 10:26:05;;;;;;;;;;;;;;;4.84;63.63;98177.17;1702212;82;21430;-61
2021/12/20 10:28:35;;;;;;;2.08;1.70;;;;;;;4.61;64.56;98169.02;1690034;82;20484;-60
2021/12/20 10:31:16;;;;;;;1.70;1.40;;;;;;;4.23;64.77;98175.81;1736780;80;21570;-60
2021/12/20 10:33:57;;;;;;;1.65;1.02;;;;;;;4.03;66.02;98170.97;1734259;80;21830;-61
2021/12/20 10:36:24;;;;;;;1.77;1.05;;;;;;;3.95;66.63;98179.97;1732303;80;21443;-59
2021/12/20 10:38:57;;;;;;;1.45;1.30;;;;;;;3.87;66.47;98173.77;1746908;80;21567;-60
2021/12/20 10:41:38;;;;;;;1.95;1.37;;;;;;;3.67;65.58;98170.63;1740528;80;21479;-61
2021/12/20 10:44:16;;;;;;;1.12;0.98;;;;;;;3.61;66.46;98174.77;1732799;80;21496;-60
2021/12/20 10:46:54;;;;;;;1.15;1.12;;;;;;;3.43;66.25;98172.42;1701072;82;21802;-60
2021/12/20 10:49:29;;;;;;;1.77;1.22;;;;;;;3.05;67.36;98170.33;1731801;80;21539;-60
2021/12/20 10:51:58;;;;;;;1.87;1.40;;;;;;;2.73;68.24;98177.48;1698792;82;21450;-59
2021/12/20 10:54:31;;;;;;;1.60;1.50;;;;;;;2.53;69.02;98182.51;1739527;80;21412;-60
2021/12/20 10:56:58;;;;;;;1.87;1.20;;;;;;;2.33;69.36;98179.27;1733772;81;21567;-61
2021/12/20 10:59:27;;;;;;;1.37;1.27;;;;;;;2.11;70.70;98180.40;1735679;80;22003;-61
2021/12/20 11:04:41;;;;;;;3.87;1.20;;;;;;;2.11;72.71;98190.34;1737881;82;21570;-60
2021/12/20 11:09:41;;;;;;;1.32;1.22;;;;;;;2.08;73.83;98190.43;1736073;80;21474;-60
2021/12/20 11:12:15;;;;;;;1.60;1.50;;;;;;;2.08;73.50;98190.43;1689824;83;22014;-60
2021/12/20 11:14:47;;;;;;;1.40;1.30;;;;;;;1.96;73.62;98189.53;1740095;80;21479;-60
2021/12/20 11:17:19;;;;;;;1.57;1.47;;;;;;;1.88;74.24;98192.34;1747501;80;21602;-61
2021/12/20 11:19:50;;;;;;;1.60;1.50;;;;;;;1.74;73.94;98199.70;1737674;80;21488;-60
2021/12/20 11:22:20;;;;;;;2.08;1.50;;;;;;;1.60;74.59;98207.03;1742431;81;21514;-60
2021/12/20 11:24:55;;;;;;;1.57;1.47;;;;;;;1.68;74.49;98204.63;1703584;82;21809;-59
2021/12/20 11:27:29;;;;;;;2.55;1.20;;;;;;;1.73;73.34;98199.29;1701314;82;21088;-62
2021/12/20 11:29:57;;;;;;;2.47;1.57;;;;;;;1.58;73.50;98200.59;1707478;82;20974;-58
2021/12/20 11:32:25;;;;;;;1.65;1.55;;;;;;;1.48;73.97;98208.24;1685318;84;21469;-60
2021/12/20 11:34:52;;;;;;;1.62;1.10;;;;;;;1.40;74.49;98208.92;1675660;84;21539;-59
2021/12/20 11:37:22;;;;;;;1.92;1.77;;;;;;;1.32;75.19;98203.96;1673952;84;21580;-59
2021/12/20 11:39:49;;;;;;;1.75;1.57;;;;;;;1.25;75.49;98221.40;1682446;84;21541;-58
2021/12/20 11:42:16;;;;;;;1.98;1.32;;;;;;;1.21;76.00;98218.50;1653025;85;21454;-59
2021/12/20 11:44:46;;;;;;;1.70;1.60;;;;;;;1.44;75.76;98217.00;1681270;84;21438;-59
2021/12/20 11:47:48;;;;;;;1.65;1.27;;;;;;;1.62;74.66;98211.30;1665559;84;21522;-60
2021/12/20 11:50:18;;;;;;;1.72;1.60;;;;;;;1.74;74.62;98208.78;1659803;85;21690;-59
2021/12/20 11:52:47;;;;;;;2.98;1.87;;;;;;;1.79;74.98;98210.80;1681502;83;21430;-62
2021/12/20 11:55:24;;;;;;;2.35;1.98;;;;;;;1.83;75.07;98216.27;1653207;84;21568;-64
2021/12/20 11:57:55;;;;;;;2.25;2.05;;;;;;;1.89;74.64;98217.84;1663982;85;21528;-63
2021/12/20 12:00:34;;;;;;;2.60;2.20;;;;;;;1.87;73.96;98221.77;1652908;84;21506;-62
2021/12/20 12:03:19;;;;;;;2.70;1.50;;;;;;;1.96;74.39;98215.46;1679971;83;21811;-63
2021/12/20 12:05:55;;;;;;;1.75;1.62;;;;;;;1.87;73.30;98219.17;1658485;84;21464;-65